Hunters Hill, Australia
Current Conditions -  °F | °C
As of 12:05 AM on Saturday 25 Oct 2014 (Local Time) from YMAY Reporting Station
Clear Clear  
Wind Chill: 63°   Ceiling: Unl
Heat Index: 63°   Visibility: 6mi
Dew Point: 55°   Wind: 3mph
Humidity: 77%   Direction: 90°E
Pressure: 29.94"   Gusts: NA
Location:  36.22°S, 147.53°E
Report Text: YMAY 241305Z AUTO 09003KT 9999 // NCD 17/13 Q1014
Loading
Personal Weather Stations






























Interactive Weather Map New forecast layout! Learn more

10-Day Weather Forecast

Advertisements
Track Severe Weather on mobile